createdAt,value
2019-05-26T00:02:43.558Z,4.53
2019-05-26T00:07:47.350Z,4.70
2019-05-26T00:12:50.639Z,5.00
2019-05-26T00:17:56.106Z,4.97
2019-05-26T00:22:59.693Z,4.70
2019-05-26T00:28:03.990Z,5.73
2019-05-26T00:33:08.937Z,5.20
2019-05-26T00:38:16.947Z,5.63
2019-05-26T00:43:20.200Z,4.60
2019-05-26T00:48:23.479Z,4.73
2019-05-26T00:53:26.762Z,4.90
2019-05-26T00:58:30.331Z,5.10
2019-05-26T01:03:33.607Z,5.30
2019-05-26T01:08:36.888Z,5.60
2019-05-26T01:13:40.168Z,4.83
2019-05-26T01:18:43.447Z,4.97
2019-05-26T01:23:46.727Z,5.23
2019-05-26T01:28:50.252Z,5.10
2019-05-26T01:33:53.783Z,5.23
2019-05-26T01:38:57.789Z,5.10
2019-05-26T01:44:01.066Z,4.67
2019-05-26T01:49:04.418Z,4.40
2019-05-26T01:54:07.691Z,4.50
2019-05-26T01:59:10.979Z,5.20
2019-05-26T02:04:14.504Z,4.00
2019-05-26T02:09:18.020Z,3.90
2019-05-26T02:14:21.295Z,4.73
2019-05-26T02:19:24.574Z,5.50
2019-05-26T02:24:28.105Z,5.30
2019-05-26T02:29:31.381Z,5.80
2019-05-26T02:34:34.665Z,5.90
2019-05-26T02:39:37.955Z,6.97
2019-05-26T02:44:41.405Z,7.23
2019-05-26T02:49:45.109Z,6.47
2019-05-26T02:54:48.394Z,7.77
2019-05-26T02:59:51.685Z,7.83
2019-05-26T03:04:55.054Z,7.83
2019-05-26T03:09:58.409Z,7.30
2019-05-26T03:15:02.273Z,9.17
2019-05-26T03:20:05.975Z,8.73
2019-05-26T03:25:09.846Z,8.80
2019-05-26T03:30:13.546Z,10.80
2019-05-26T03:35:16.839Z,11.03
2019-05-26T03:40:20.141Z,11.00
2019-05-26T03:45:35.499Z,12.23
2019-05-26T03:50:38.868Z,11.60
2019-05-26T03:55:42.122Z,12.70
2019-05-26T04:00:45.419Z,14.23
2019-05-26T04:05:48.960Z,14.37
2019-05-26T04:10:52.525Z,13.23
2019-05-26T04:15:55.820Z,15.47
2019-05-26T04:20:59.123Z,13.50
2019-05-26T04:26:02.420Z,15.27
2019-05-26T04:31:05.967Z,16.57
2019-05-26T04:36:09.266Z,17.23
2019-05-26T04:41:12.565Z,17.67
2019-05-26T04:46:16.103Z,17.27
2019-05-26T04:51:19.422Z,18.10
2019-05-26T04:56:22.969Z,18.90
2019-05-26T05:01:26.502Z,18.07
2019-05-26T05:06:29.908Z,20.13
2019-05-26T05:11:33.188Z,21.00
2019-05-26T05:16:36.732Z,20.20
2019-05-26T05:21:40.202Z,19.53
2019-05-26T05:26:43.442Z,19.73
2019-05-26T05:31:46.987Z,19.77
2019-05-26T05:36:50.283Z,19.07
2019-05-26T05:41:53.580Z,19.50
2019-05-26T05:46:56.873Z,19.37
2019-05-26T05:52:00.241Z,18.67
2019-05-26T05:57:08.447Z,21.00
2019-05-26T06:02:09.453Z,20.27
2019-05-26T06:07:12.750Z,19.07
2019-05-26T06:12:16.070Z,18.87
2019-05-26T06:17:19.622Z,20.07
2019-05-26T06:22:23.172Z,20.37
2019-05-26T06:27:26.617Z,21.87
2019-05-26T06:32:29.929Z,22.87
2019-05-26T06:37:33.220Z,22.77
2019-05-26T06:42:36.531Z,21.67
2019-05-26T06:47:40.076Z,24.43
2019-05-26T06:52:43.614Z,23.97
2019-05-26T06:57:47.150Z,22.00
2019-05-26T07:02:50.781Z,22.73
2019-05-26T07:07:54.140Z,19.87
2019-05-26T07:12:57.683Z,18.67
2019-05-26T07:18:01.037Z,17.90
2019-05-26T07:23:06.202Z,18.37
2019-05-26T07:28:09.617Z,17.53
2019-05-26T07:33:13.226Z,15.07
2019-05-26T07:38:16.778Z,15.83
2019-05-26T07:43:20.082Z,16.47
2019-05-26T07:48:23.630Z,16.70
2019-05-26T07:53:26.934Z,14.20
2019-05-26T07:58:30.468Z,13.37
2019-05-26T08:03:33.759Z,11.47
2019-05-26T08:08:37.317Z,9.80
2019-05-26T08:13:40.618Z,10.07
2019-05-26T08:18:44.160Z,9.73
2019-05-26T08:23:47.429Z,8.80
2019-05-26T08:28:51.049Z,9.37
2019-05-26T08:33:54.577Z,9.80
2019-05-26T08:38:58.115Z,9.13
2019-05-26T08:44:01.648Z,8.10
2019-05-26T08:49:05.225Z,7.43
2019-05-26T08:54:08.523Z,8.00
2019-05-26T08:59:11.850Z,7.03
2019-05-26T09:04:15.397Z,5.83
2019-05-26T09:09:18.911Z,4.77
2019-05-26T09:14:25.412Z,5.23
2019-05-26T09:19:27.700Z,5.00
2019-05-26T09:24:31.569Z,4.60
2019-05-26T09:29:34.862Z,4.93
2019-05-26T09:34:38.154Z,4.40
2019-05-26T09:39:41.425Z,4.07
2019-05-26T09:44:45.867Z,3.40
2019-05-26T09:49:49.630Z,3.00
2019-05-26T09:54:52.917Z,2.93
2019-05-26T09:59:56.363Z,3.83
2019-05-26T10:04:59.893Z,3.80
2019-05-26T10:10:04.895Z,3.77
2019-05-26T10:15:08.660Z,3.50
2019-05-26T10:20:12.270Z,3.33
2019-05-26T10:25:16.391Z,4.30
2019-05-26T10:30:19.739Z,4.30
2019-05-26T10:35:23.259Z,4.87
2019-05-26T10:40:26.961Z,4.03
2019-05-26T10:45:34.142Z,5.77
2019-05-26T10:50:35.796Z,5.47
2019-05-26T10:55:39.314Z,5.23
2019-05-26T11:00:42.858Z,4.80
2019-05-26T11:05:47.654Z,4.20
2019-05-26T11:10:50.849Z,4.43
2019-05-26T11:15:54.134Z,2.90
2019-05-26T11:20:57.415Z,2.87
2019-05-26T11:26:00.850Z,2.87
2019-05-26T11:31:04.250Z,2.97
2019-05-26T11:36:07.539Z,1.93
2019-05-26T11:41:11.058Z,2.47
2019-05-26T11:46:16.603Z,2.33
2019-05-26T11:51:19.587Z,1.77
2019-05-26T11:56:23.118Z,1.50
2019-05-26T12:01:26.656Z,1.50
2019-05-26T12:06:29.929Z,1.97
2019-05-26T12:11:33.471Z,1.50
2019-05-26T12:16:37.125Z,1.10
2019-05-26T12:21:40.420Z,1.50
2019-05-26T12:26:43.768Z,1.30
2019-05-26T12:31:47.043Z,1.83
2019-05-26T12:36:50.350Z,1.57
2019-05-26T12:41:53.870Z,1.27
2019-05-26T12:46:57.477Z,1.37
2019-05-26T12:52:00.761Z,1.67
2019-05-26T12:57:04.040Z,1.80
2019-05-26T13:02:07.643Z,1.93
2019-05-26T13:07:10.932Z,1.97
2019-05-26T13:12:14.204Z,2.40
2019-05-26T13:17:17.485Z,2.53
2019-05-26T13:22:20.768Z,1.90
2019-05-26T13:27:24.369Z,2.30
2019-05-26T13:32:27.852Z,3.03
2019-05-26T13:37:31.422Z,2.40
2019-05-26T13:42:34.785Z,1.97
2019-05-26T13:47:38.126Z,1.93
2019-05-26T13:52:41.656Z,2.83
2019-05-26T13:57:44.943Z,2.67
2019-05-26T14:02:48.691Z,2.90
2019-05-26T14:07:52.023Z,2.27
2019-05-26T14:12:55.245Z,2.57
2019-05-26T14:17:59.832Z,2.67
2019-05-26T14:23:03.911Z,2.20
2019-05-26T14:28:08.425Z,2.40
2019-05-26T14:33:11.727Z,2.67
2019-05-26T14:38:15.606Z,2.87
2019-05-26T14:43:18.887Z,2.40
2019-05-26T14:48:22.405Z,2.73
2019-05-26T14:53:25.933Z,2.97
2019-05-26T14:58:29.453Z,2.87
2019-05-26T15:03:32.724Z,2.77
2019-05-26T15:08:36.262Z,3.50
2019-05-26T15:13:39.771Z,2.67
2019-05-26T15:18:43.289Z,4.03
2019-05-26T15:23:46.856Z,3.80
2019-05-26T15:28:50.379Z,3.10
2019-05-26T15:33:53.937Z,4.53
2019-05-26T15:38:57.428Z,4.30
2019-05-26T15:44:00.843Z,3.87
2019-05-26T15:49:04.379Z,3.90
2019-05-26T15:54:07.665Z,4.73
2019-05-26T15:59:11.013Z,4.37
2019-05-26T16:04:14.220Z,3.60
2019-05-26T16:09:17.503Z,3.70
2019-05-26T16:14:20.786Z,3.40
2019-05-26T16:19:24.120Z,3.93
2019-05-26T16:24:27.412Z,3.00
2019-05-26T16:29:30.685Z,2.60
2019-05-26T16:34:33.972Z,2.63
2019-05-26T16:39:37.634Z,2.90
2019-05-26T16:44:41.021Z,2.67
2019-05-26T16:49:44.554Z,2.80
2019-05-26T16:54:47.841Z,2.57
2019-05-26T16:59:51.126Z,2.60
2019-05-26T17:04:54.475Z,2.70
2019-05-26T17:09:57.765Z,2.77
2019-05-26T17:15:01.051Z,3.00
2019-05-26T17:20:06.276Z,3.13
2019-05-26T17:25:09.938Z,3.23
2019-05-26T17:30:13.719Z,3.40
2019-05-26T17:35:17.127Z,2.93
2019-05-26T17:40:22.829Z,2.83
2019-05-26T17:45:26.378Z,3.30
2019-05-26T17:50:29.890Z,3.30
2019-05-26T17:55:33.298Z,3.00
2019-05-26T18:00:37.261Z,2.60
2019-05-26T18:05:40.540Z,2.90
2019-05-26T18:10:44.089Z,3.33
2019-05-26T18:15:47.618Z,2.90
2019-05-26T18:20:50.963Z,2.87
2019-05-26T18:25:54.236Z,3.00
2019-05-26T18:30:57.521Z,3.33
2019-05-26T18:36:01.082Z,2.93
2019-05-26T18:41:04.629Z,3.20
2019-05-26T18:46:07.934Z,3.00
2019-05-26T18:51:11.233Z,3.77
2019-05-26T18:56:14.766Z,2.80
2019-05-26T19:01:18.063Z,2.73
2019-05-26T19:06:21.342Z,3.10
2019-05-26T19:11:24.709Z,3.20
2019-05-26T19:16:28.229Z,2.70
2019-05-26T19:21:31.523Z,3.37
2019-05-26T19:26:35.228Z,3.10
2019-05-26T19:31:38.521Z,4.63
2019-05-26T19:36:41.814Z,3.33
2019-05-26T19:41:45.115Z,4.03
2019-05-26T19:46:52.654Z,3.23
2019-05-26T19:51:53.878Z,4.10
2019-05-26T19:56:57.417Z,3.77
2019-05-26T20:02:17.320Z,3.50
2019-05-26T20:07:06.491Z,3.37
2019-05-26T20:12:10.145Z,3.80
2019-05-26T20:17:13.495Z,3.23
2019-05-26T20:22:17.044Z,3.80
2019-05-26T20:27:20.695Z,3.50
2019-05-26T20:32:23.979Z,3.40
2019-05-26T20:37:27.264Z,3.20
2019-05-26T20:42:30.553Z,3.40
2019-05-26T20:47:33.841Z,2.90
2019-05-26T20:52:37.128Z,2.30
2019-05-26T20:57:40.645Z,2.63
2019-05-26T21:02:44.165Z,2.40
2019-05-26T21:07:48.799Z,1.97
2019-05-26T21:12:52.082Z,2.30
2019-05-26T21:17:55.371Z,1.97
2019-05-26T21:22:58.938Z,2.17
2019-05-26T21:28:02.454Z,1.83
2019-05-26T21:33:06.188Z,2.07
2019-05-26T21:38:09.727Z,2.40
2019-05-26T21:43:13.026Z,2.10
2019-05-26T21:48:16.320Z,2.83
2019-05-26T21:53:19.642Z,2.90
2019-05-26T21:58:22.890Z,4.10
2019-05-26T22:03:26.326Z,3.80
2019-05-26T22:08:29.873Z,3.60
2019-05-26T22:13:33.152Z,3.03
2019-05-26T22:18:36.445Z,4.87
2019-05-26T22:23:39.745Z,4.03
2019-05-26T22:28:43.284Z,3.90
2019-05-26T22:33:46.807Z,3.50
2019-05-26T22:38:50.104Z,3.20
2019-05-26T22:43:53.432Z,2.63
2019-05-26T22:48:56.742Z,3.83
2019-05-26T22:54:00.043Z,3.33
2019-05-26T22:59:03.563Z,2.83
2019-05-26T23:04:06.862Z,2.60
2019-05-26T23:09:10.492Z,2.77
2019-05-26T23:14:14.021Z,2.47
2019-05-26T23:19:19.905Z,2.90
2019-05-26T23:24:22.670Z,2.67
2019-05-26T23:29:26.223Z,2.30
2019-05-26T23:34:32.469Z,2.37
2019-05-26T23:39:35.991Z,2.90
2019-05-26T23:44:41.150Z,3.10
2019-05-26T23:49:44.694Z,3.40
2019-05-26T23:54:48.004Z,3.40
2019-05-26T23:59:51.548Z,3.00
